sensor_id;sensor_type;location;lat;lon;timestamp;temperature;humidity
15630;DHT22;7914;50.842;0.166;2022-07-22T00:02:22;17.80;99.90
15630;DHT22;7914;50.842;0.166;2022-07-22T00:04:48;17.80;99.90
15630;DHT22;7914;50.842;0.166;2022-07-22T00:07:14;17.80;99.90
15630;DHT22;7914;50.842;0.166;2022-07-22T00:09:40;17.90;99.90
15630;DHT22;7914;50.842;0.166;2022-07-22T00:12:06;17.80;99.90
15630;DHT22;7914;50.842;0.166;2022-07-22T00:14:32;17.80;99.90
15630;DHT22;7914;50.842;0.166;2022-07-22T00:16:58;17.80;99.90
15630;DHT22;7914;50.842;0.166;2022-07-22T00:19:23;17.70;99.90
15630;DHT22;7914;50.842;0.166;2022-07-22T00:21:50;17.80;99.90
15630;DHT22;7914;50.842;0.166;2022-07-22T00:24:16;17.70;99.90
15630;DHT22;7914;50.842;0.166;2022-07-22T00:26:42;17.70;99.90
15630;DHT22;7914;50.842;0.166;2022-07-22T00:29:08;17.70;99.90
15630;DHT22;7914;50.842;0.166;2022-07-22T00:31:34;17.70;99.90
15630;DHT22;7914;50.842;0.166;2022-07-22T00:34:00;17.70;99.90
15630;DHT22;7914;50.842;0.166;2022-07-22T00:36:27;17.70;99.90
15630;DHT22;7914;50.842;0.166;2022-07-22T00:38:53;17.70;99.90
15630;DHT22;7914;50.842;0.166;2022-07-22T00:41:19;17.70;99.90
15630;DHT22;7914;50.842;0.166;2022-07-22T00:43:59;17.70;99.90
15630;DHT22;7914;50.842;0.166;2022-07-22T00:46:25;17.70;99.90
15630;DHT22;7914;50.842;0.166;2022-07-22T00:48:52;17.60;99.90
15630;DHT22;7914;50.842;0.166;2022-07-22T00:51:19;17.60;99.90
15630;DHT22;7914;50.842;0.166;2022-07-22T00:53:46;17.60;99.90
15630;DHT22;7914;50.842;0.166;2022-07-22T00:56:12;17.60;99.90
15630;DHT22;7914;50.842;0.166;2022-07-22T00:58:38;17.50;99.90
15630;DHT22;7914;50.842;0.166;2022-07-22T01:01:04;17.50;99.90
15630;DHT22;7914;50.842;0.166;2022-07-22T01:03:30;17.50;99.90
15630;DHT22;7914;50.842;0.166;2022-07-22T01:05:56;17.40;99.90
15630;DHT22;7914;50.842;0.166;2022-07-22T01:08:22;17.40;99.90
15630;DHT22;7914;50.842;0.166;2022-07-22T01:10:48;17.40;99.90
15630;DHT22;7914;50.842;0.166;2022-07-22T01:13:14;17.40;99.90
15630;DHT22;7914;50.842;0.166;2022-07-22T01:15:40;17.40;99.90
15630;DHT22;7914;50.842;0.166;2022-07-22T01:18:05;17.40;99.90
15630;DHT22;7914;50.842;0.166;2022-07-22T01:20:31;17.40;99.90
15630;DHT22;7914;50.842;0.166;2022-07-22T01:22:57;17.40;99.90
15630;DHT22;7914;50.842;0.166;2022-07-22T01:25:23;17.50;99.90
15630;DHT22;7914;50.842;0.166;2022-07-22T01:27:49;17.50;99.90
15630;DHT22;7914;50.842;0.166;2022-07-22T01:30:14;17.50;99.90
15630;DHT22;7914;50.842;0.166;2022-07-22T01:32:40;17.40;99.90
15630;DHT22;7914;50.842;0.166;2022-07-22T01:35:06;17.40;99.90
15630;DHT22;7914;50.842;0.166;2022-07-22T01:37:33;17.40;99.90
15630;DHT22;7914;50.842;0.166;2022-07-22T01:39:59;17.50;99.90
15630;DHT22;7914;50.842;0.166;2022-07-22T01:42:25;17.40;99.90
15630;DHT22;7914;50.842;0.166;2022-07-22T01:44:51;17.40;99.90
15630;DHT22;7914;50.842;0.166;2022-07-22T01:47:17;17.40;99.90
15630;DHT22;7914;50.842;0.166;2022-07-22T01:49:43;17.40;99.90
15630;DHT22;7914;50.842;0.166;2022-07-22T01:52:09;17.40;99.90
15630;DHT22;7914;50.842;0.166;2022-07-22T01:54:35;17.30;99.90
15630;DHT22;7914;50.842;0.166;2022-07-22T01:57:01;17.30;99.90
15630;DHT22;7914;50.842;0.166;2022-07-22T01:59:27;17.30;99.90
15630;DHT22;7914;50.842;0.166;2022-07-22T02:01:53;17.20;99.90
15630;DHT22;7914;50.842;0.166;2022-07-22T02:04:19;17.10;99.90
15630;DHT22;7914;50.842;0.166;2022-07-22T02:06:45;17.10;99.90
15630;DHT22;7914;50.842;0.166;2022-07-22T02:09:10;17.10;99.90
15630;DHT22;7914;50.842;0.166;2022-07-22T02:11:36;17.10;99.90
15630;DHT22;7914;50.842;0.166;2022-07-22T02:14:02;17.10;99.90
15630;DHT22;7914;50.842;0.166;2022-07-22T02:16:28;17.10;99.90
15630;DHT22;7914;50.842;0.166;2022-07-22T02:18:54;17.10;99.90
15630;DHT22;7914;50.842;0.166;2022-07-22T02:21:20;17.10;99.90
15630;DHT22;7914;50.842;0.166;2022-07-22T02:23:46;17.10;99.90
15630;DHT22;7914;50.842;0.166;2022-07-22T02:26:11;17.10;99.90
15630;DHT22;7914;50.842;0.166;2022-07-22T02:28:37;17.10;99.90
15630;DHT22;7914;50.842;0.166;2022-07-22T02:31:03;17.10;99.90
15630;DHT22;7914;50.842;0.166;2022-07-22T02:33:29;17.10;99.90
15630;DHT22;7914;50.842;0.166;2022-07-22T02:35:55;17.10;99.90
15630;DHT22;7914;50.842;0.166;2022-07-22T02:38:21;17.10;99.90
15630;DHT22;7914;50.842;0.166;2022-07-22T02:40:47;17.20;99.90
15630;DHT22;7914;50.842;0.166;2022-07-22T02:43:13;17.20;99.90
15630;DHT22;7914;50.842;0.166;2022-07-22T02:45:39;17.20;99.90
15630;DHT22;7914;50.842;0.166;2022-07-22T02:48:05;17.20;99.90
15630;DHT22;7914;50.842;0.166;2022-07-22T02:50:31;17.20;99.90
15630;DHT22;7914;50.842;0.166;2022-07-22T02:52:58;17.20;99.90
15630;DHT22;7914;50.842;0.166;2022-07-22T02:55:24;17.20;99.90
15630;DHT22;7914;50.842;0.166;2022-07-22T02:57:50;17.20;99.90
15630;DHT22;7914;50.842;0.166;2022-07-22T03:00:16;17.20;99.90
15630;DHT22;7914;50.842;0.166;2022-07-22T03:02:43;17.20;99.90
15630;DHT22;7914;50.842;0.166;2022-07-22T03:05:09;17.20;99.90
15630;DHT22;7914;50.842;0.166;2022-07-22T03:07:34;17.20;99.90
15630;DHT22;7914;50.842;0.166;2022-07-22T03:10:00;17.20;99.90
15630;DHT22;7914;50.842;0.166;2022-07-22T03:12:26;17.10;99.90
15630;DHT22;7914;50.842;0.166;2022-07-22T03:14:52;17.00;99.90
15630;DHT22;7914;50.842;0.166;2022-07-22T03:17:18;17.10;99.90
15630;DHT22;7914;50.842;0.166;2022-07-22T03:19:43;17.10;99.90
15630;DHT22;7914;50.842;0.166;2022-07-22T03:22:09;17.00;99.90
15630;DHT22;7914;50.842;0.166;2022-07-22T03:24:35;17.00;99.90
15630;DHT22;7914;50.842;0.166;2022-07-22T03:27:01;17.00;99.90
15630;DHT22;7914;50.842;0.166;2022-07-22T03:29:27;17.00;99.90
15630;DHT22;7914;50.842;0.166;2022-07-22T03:31:52;16.90;99.90
15630;DHT22;7914;50.842;0.166;2022-07-22T03:34:18;16.90;99.90
15630;DHT22;7914;50.842;0.166;2022-07-22T03:36:44;16.90;99.90
15630;DHT22;7914;50.842;0.166;2022-07-22T03:39:10;16.80;99.90
15630;DHT22;7914;50.842;0.166;2022-07-22T03:41:35;16.90;99.90
15630;DHT22;7914;50.842;0.166;2022-07-22T03:44:01;16.80;99.90
15630;DHT22;7914;50.842;0.166;2022-07-22T03:46:27;16.80;99.90
15630;DHT22;7914;50.842;0.166;2022-07-22T03:48:52;16.80;99.90
15630;DHT22;7914;50.842;0.166;2022-07-22T03:51:18;16.80;99.90
15630;DHT22;7914;50.842;0.166;2022-07-22T03:53:44;16.70;99.90
15630;DHT22;7914;50.842;0.166;2022-07-22T03:56:09;16.80;99.90
15630;DHT22;7914;50.842;0.166;2022-07-22T03:58:35;16.70;99.90
15630;DHT22;7914;50.842;0.166;2022-07-22T04:01:01;16.70;99.90
15630;DHT22;7914;50.842;0.166;2022-07-22T04:03:27;16.70;99.90
15630;DHT22;7914;50.842;0.166;2022-07-22T04:05:52;16.70;99.90
15630;DHT22;7914;50.842;0.166;2022-07-22T04:08:18;16.80;99.90
15630;DHT22;7914;50.842;0.166;2022-07-22T04:10:44;16.70;99.90
15630;DHT22;7914;50.842;0.166;2022-07-22T04:13:10;16.70;99.90
15630;DHT22;7914;50.842;0.166;2022-07-22T04:15:37;16.70;99.90
15630;DHT22;7914;50.842;0.166;2022-07-22T04:18:03;16.70;99.90
15630;DHT22;7914;50.842;0.166;2022-07-22T04:20:28;16.70;99.90
15630;DHT22;7914;50.842;0.166;2022-07-22T04:22:54;16.70;99.90
15630;DHT22;7914;50.842;0.166;2022-07-22T04:25:20;16.70;99.90
15630;DHT22;7914;50.842;0.166;2022-07-22T04:27:45;16.70;99.90
15630;DHT22;7914;50.842;0.166;2022-07-22T04:30:11;16.60;99.90
15630;DHT22;7914;50.842;0.166;2022-07-22T04:32:37;16.70;99.90
15630;DHT22;7914;50.842;0.166;2022-07-22T04:35:04;16.70;99.90
15630;DHT22;7914;50.842;0.166;2022-07-22T04:37:30;16.70;99.90
15630;DHT22;7914;50.842;0.166;2022-07-22T04:39:56;16.60;99.90
15630;DHT22;7914;50.842;0.166;2022-07-22T04:42:22;16.70;99.90
15630;DHT22;7914;50.842;0.166;2022-07-22T04:44:47;16.60;99.90
15630;DHT22;7914;50.842;0.166;2022-07-22T04:47:13;16.70;99.90
15630;DHT22;7914;50.842;0.166;2022-07-22T04:49:39;16.70;99.90
15630;DHT22;7914;50.842;0.166;2022-07-22T04:52:05;16.60;99.90
15630;DHT22;7914;50.842;0.166;2022-07-22T04:54:31;16.70;99.90
15630;DHT22;7914;50.842;0.166;2022-07-22T04:56:57;16.70;99.90
15630;DHT22;7914;50.842;0.166;2022-07-22T04:59:22;16.80;99.90
15630;DHT22;7914;50.842;0.166;2022-07-22T05:01:48;16.80;99.90
15630;DHT22;7914;50.842;0.166;2022-07-22T05:04:14;16.90;99.90
15630;DHT22;7914;50.842;0.166;2022-07-22T05:06:40;17.00;99.90
15630;DHT22;7914;50.842;0.166;2022-07-22T05:09:06;17.00;99.90
15630;DHT22;7914;50.842;0.166;2022-07-22T05:11:32;17.10;99.90
15630;DHT22;7914;50.842;0.166;2022-07-22T05:13:58;17.20;99.90
15630;DHT22;7914;50.842;0.166;2022-07-22T05:16:24;17.20;99.90
15630;DHT22;7914;50.842;0.166;2022-07-22T05:18:50;17.30;99.90
15630;DHT22;7914;50.842;0.166;2022-07-22T05:21:15;17.40;99.90
15630;DHT22;7914;50.842;0.166;2022-07-22T05:23:41;17.50;99.90
15630;DHT22;7914;50.842;0.166;2022-07-22T05:26:08;17.60;99.90
15630;DHT22;7914;50.842;0.166;2022-07-22T05:28:34;17.60;99.90
15630;DHT22;7914;50.842;0.166;2022-07-22T05:30:59;17.70;99.90
15630;DHT22;7914;50.842;0.166;2022-07-22T05:33:25;17.90;99.90
15630;DHT22;7914;50.842;0.166;2022-07-22T05:35:51;18.00;99.90
15630;DHT22;7914;50.842;0.166;2022-07-22T05:38:17;18.20;99.90
15630;DHT22;7914;50.842;0.166;2022-07-22T05:40:43;18.60;99.90
15630;DHT22;7914;50.842;0.166;2022-07-22T05:45:34;18.80;99.90
15630;DHT22;7914;50.842;0.166;2022-07-22T05:48:00;18.70;99.90
15630;DHT22;7914;50.842;0.166;2022-07-22T05:50:27;18.30;99.90
15630;DHT22;7914;50.842;0.166;2022-07-22T05:52:52;18.40;99.90
15630;DHT22;7914;50.842;0.166;2022-07-22T05:55:18;18.40;99.90
15630;DHT22;7914;50.842;0.166;2022-07-22T05:57:44;18.50;99.90
15630;DHT22;7914;50.842;0.166;2022-07-22T06:00:10;18.60;99.90
15630;DHT22;7914;50.842;0.166;2022-07-22T06:02:36;18.90;99.90
15630;DHT22;7914;50.842;0.166;2022-07-22T06:05:02;19.00;99.90
15630;DHT22;7914;50.842;0.166;2022-07-22T06:07:27;18.90;99.90
15630;DHT22;7914;50.842;0.166;2022-07-22T06:09:53;19.00;99.90
15630;DHT22;7914;50.842;0.166;2022-07-22T06:12:19;18.90;99.90
15630;DHT22;7914;50.842;0.166;2022-07-22T06:14:45;18.90;99.90
15630;DHT22;7914;50.842;0.166;2022-07-22T06:17:12;18.90;99.90
15630;DHT22;7914;50.842;0.166;2022-07-22T06:19:38;18.90;99.90
15630;DHT22;7914;50.842;0.166;2022-07-22T06:22:04;19.20;99.90
15630;DHT22;7914;50.842;0.166;2022-07-22T06:24:29;19.40;99.90
15630;DHT22;7914;50.842;0.166;2022-07-22T06:26:55;19.60;99.90
15630;DHT22;7914;50.842;0.166;2022-07-22T06:29:21;19.80;99.90
15630;DHT22;7914;50.842;0.166;2022-07-22T06:31:47;19.90;99.90
15630;DHT22;7914;50.842;0.166;2022-07-22T06:34:13;19.60;99.90
15630;DHT22;7914;50.842;0.166;2022-07-22T06:36:39;19.50;99.90
15630;DHT22;7914;50.842;0.166;2022-07-22T06:39:04;19.50;99.90
15630;DHT22;7914;50.842;0.166;2022-07-22T06:41:30;19.60;99.90
15630;DHT22;7914;50.842;0.166;2022-07-22T06:43:56;19.80;99.90
15630;DHT22;7914;50.842;0.166;2022-07-22T06:46:22;19.80;99.90
15630;DHT22;7914;50.842;0.166;2022-07-22T06:48:47;19.80;99.90
15630;DHT22;7914;50.842;0.166;2022-07-22T06:51:13;19.70;99.90
15630;DHT22;7914;50.842;0.166;2022-07-22T06:53:39;19.70;99.90
15630;DHT22;7914;50.842;0.166;2022-07-22T06:56:05;19.50;99.90
15630;DHT22;7914;50.842;0.166;2022-07-22T06:58:30;19.40;99.90
15630;DHT22;7914;50.842;0.166;2022-07-22T07:00:56;19.40;99.90
15630;DHT22;7914;50.842;0.166;2022-07-22T07:03:22;19.20;99.90
15630;DHT22;7914;50.842;0.166;2022-07-22T07:05:51;19.10;99.90
15630;DHT22;7914;50.842;0.166;2022-07-22T07:08:17;19.10;99.90
15630;DHT22;7914;50.842;0.166;2022-07-22T07:10:43;19.20;99.90
15630;DHT22;7914;50.842;0.166;2022-07-22T07:13:08;19.40;99.90
15630;DHT22;7914;50.842;0.166;2022-07-22T07:15:34;19.90;99.90
15630;DHT22;7914;50.842;0.166;2022-07-22T07:18:00;20.40;99.90
15630;DHT22;7914;50.842;0.166;2022-07-22T07:20:26;20.50;99.90
15630;DHT22;7914;50.842;0.166;2022-07-22T07:22:52;20.80;99.90
15630;DHT22;7914;50.842;0.166;2022-07-22T07:25:18;20.80;99.90
15630;DHT22;7914;50.842;0.166;2022-07-22T07:27:44;20.90;99.90
15630;DHT22;7914;50.842;0.166;2022-07-22T07:30:10;20.90;94.30
15630;DHT22;7914;50.842;0.166;2022-07-22T07:32:37;20.80;99.90
15630;DHT22;7914;50.842;0.166;2022-07-22T07:35:05;20.40;99.90
15630;DHT22;7914;50.842;0.166;2022-07-22T07:37:31;20.20;99.90
15630;DHT22;7914;50.842;0.166;2022-07-22T07:39:58;19.90;99.90
15630;DHT22;7914;50.842;0.166;2022-07-22T07:42:24;19.80;99.90
15630;DHT22;7914;50.842;0.166;2022-07-22T07:44:50;19.60;99.90
15630;DHT22;7914;50.842;0.166;2022-07-22T07:47:16;19.60;99.90
15630;DHT22;7914;50.842;0.166;2022-07-22T07:49:48;19.60;99.90
15630;DHT22;7914;50.842;0.166;2022-07-22T07:52:15;19.60;99.90
15630;DHT22;7914;50.842;0.166;2022-07-22T07:54:41;19.60;99.90
15630;DHT22;7914;50.842;0.166;2022-07-22T07:57:09;19.60;99.90
15630;DHT22;7914;50.842;0.166;2022-07-22T07:59:37;19.50;99.90
15630;DHT22;7914;50.842;0.166;2022-07-22T08:02:03;19.40;99.90
15630;DHT22;7914;50.842;0.166;2022-07-22T08:04:30;19.30;99.90
15630;DHT22;7914;50.842;0.166;2022-07-22T08:06:56;19.40;99.90
15630;DHT22;7914;50.842;0.166;2022-07-22T08:09:23;19.40;99.90
15630;DHT22;7914;50.842;0.166;2022-07-22T08:11:49;19.60;99.90
15630;DHT22;7914;50.842;0.166;2022-07-22T08:14:15;19.80;99.90
15630;DHT22;7914;50.842;0.166;2022-07-22T08:16:41;19.90;99.90
15630;DHT22;7914;50.842;0.166;2022-07-22T08:19:07;19.80;99.90
15630;DHT22;7914;50.842;0.166;2022-07-22T08:21:32;19.70;99.90
15630;DHT22;7914;50.842;0.166;2022-07-22T08:23:58;19.80;99.90
15630;DHT22;7914;50.842;0.166;2022-07-22T08:26:24;19.90;99.90
15630;DHT22;7914;50.842;0.166;2022-07-22T08:28:50;20.20;99.90
15630;DHT22;7914;50.842;0.166;2022-07-22T08:31:15;20.50;99.90
15630;DHT22;7914;50.842;0.166;2022-07-22T08:33:42;20.70;99.90
15630;DHT22;7914;50.842;0.166;2022-07-22T08:36:08;20.80;99.90
15630;DHT22;7914;50.842;0.166;2022-07-22T08:38:33;21.10;99.90
15630;DHT22;7914;50.842;0.166;2022-07-22T08:41:01;21.50;87.10
15630;DHT22;7914;50.842;0.166;2022-07-22T08:43:27;21.50;74.90
15630;DHT22;7914;50.842;0.166;2022-07-22T08:45:53;21.40;65.30
15630;DHT22;7914;50.842;0.166;2022-07-22T08:48:19;21.30;87.00
15630;DHT22;7914;50.842;0.166;2022-07-22T08:50:45;21.40;91.50
15630;DHT22;7914;50.842;0.166;2022-07-22T08:53:12;21.30;92.20
15630;DHT22;7914;50.842;0.166;2022-07-22T08:55:46;21.20;91.80
15630;DHT22;7914;50.842;0.166;2022-07-22T08:58:12;21.20;77.10
15630;DHT22;7914;50.842;0.166;2022-07-22T09:00:38;21.10;95.20
15630;DHT22;7914;50.842;0.166;2022-07-22T09:03:22;21.30;86.60
15630;DHT22;7914;50.842;0.166;2022-07-22T09:05:50;21.60;81.60
15630;DHT22;7914;50.842;0.166;2022-07-22T09:08:16;21.60;81.70
15630;DHT22;7914;50.842;0.166;2022-07-22T09:10:42;21.70;79.70
15630;DHT22;7914;50.842;0.166;2022-07-22T09:13:09;21.50;66.90
15630;DHT22;7914;50.842;0.166;2022-07-22T09:15:38;21.80;70.20
15630;DHT22;7914;50.842;0.166;2022-07-22T09:18:07;21.70;65.70
15630;DHT22;7914;50.842;0.166;2022-07-22T09:20:35;21.60;45.40
15630;DHT22;7914;50.842;0.166;2022-07-22T09:23:09;21.50;78.00
15630;DHT22;7914;50.842;0.166;2022-07-22T09:25:36;21.20;70.00
15630;DHT22;7914;50.842;0.166;2022-07-22T09:33:28;21.80;53.70
15630;DHT22;7914;50.842;0.166;2022-07-22T09:36:02;22.00;45.60
15630;DHT22;7914;50.842;0.166;2022-07-22T09:38:29;22.10;43.30
15630;DHT22;7914;50.842;0.166;2022-07-22T09:40:57;22.20;32.80
15630;DHT22;7914;50.842;0.166;2022-07-22T09:43:23;22.20;38.90
15630;DHT22;7914;50.842;0.166;2022-07-22T09:45:55;22.30;27.50
15630;DHT22;7914;50.842;0.166;2022-07-22T09:48:25;22.50;23.50
15630;DHT22;7914;50.842;0.166;2022-07-22T09:50:54;22.90;10.50
15630;DHT22;7914;50.842;0.166;2022-07-22T09:53:22;23.10;1.00
15630;DHT22;7914;50.842;0.166;2022-07-22T09:55:48;22.70;17.60
15630;DHT22;7914;50.842;0.166;2022-07-22T09:58:15;22.80;14.40
15630;DHT22;7914;50.842;0.166;2022-07-22T10:00:42;23.00;9.90
15630;DHT22;7914;50.842;0.166;2022-07-22T10:03:12;23.40;1.00
15630;DHT22;7914;50.842;0.166;2022-07-22T10:05:40;23.50;7.00
15630;DHT22;7914;50.842;0.166;2022-07-22T10:08:06;23.50;2.80
15630;DHT22;7914;50.842;0.166;2022-07-22T10:10:34;23.70;1.00
15630;DHT22;7914;50.842;0.166;2022-07-22T10:13:01;23.70;1.00
15630;DHT22;7914;50.842;0.166;2022-07-22T10:15:29;23.30;1.00
15630;DHT22;7914;50.842;0.166;2022-07-22T10:18:00;23.10;1.00
15630;DHT22;7914;50.842;0.166;2022-07-22T10:20:28;22.70;1.00
15630;DHT22;7914;50.842;0.166;2022-07-22T10:23:00;22.60;1.00
15630;DHT22;7914;50.842;0.166;2022-07-22T10:25:28;22.70;1.00
15630;DHT22;7914;50.842;0.166;2022-07-22T10:28:03;22.50;1.00
15630;DHT22;7914;50.842;0.166;2022-07-22T10:30:32;22.40;1.00
15630;DHT22;7914;50.842;0.166;2022-07-22T10:33:13;22.10;1.00
15630;DHT22;7914;50.842;0.166;2022-07-22T10:38:11;21.70;1.00
15630;DHT22;7914;50.842;0.166;2022-07-22T10:43:18;21.60;1.00
15630;DHT22;7914;50.842;0.166;2022-07-22T10:45:53;21.50;1.00
15630;DHT22;7914;50.842;0.166;2022-07-22T10:48:24;21.30;1.00
15630;DHT22;7914;50.842;0.166;2022-07-22T10:50:53;21.10;1.00
15630;DHT22;7914;50.842;0.166;2022-07-22T10:53:45;20.80;18.90
15630;DHT22;7914;50.842;0.166;2022-07-22T10:56:31;20.90;22.70
15630;DHT22;7914;50.842;0.166;2022-07-22T10:59:14;20.80;13.20
15630;DHT22;7914;50.842;0.166;2022-07-22T11:01:44;20.70;15.50
15630;DHT22;7914;50.842;0.166;2022-07-22T11:04:15;20.80;15.70
15630;DHT22;7914;50.842;0.166;2022-07-22T11:06:42;20.70;22.80
15630;DHT22;7914;50.842;0.166;2022-07-22T11:09:11;20.70;24.30
15630;DHT22;7914;50.842;0.166;2022-07-22T11:11:43;20.70;25.50
15630;DHT22;7914;50.842;0.166;2022-07-22T11:16:47;20.70;22.20
15630;DHT22;7914;50.842;0.166;2022-07-22T11:19:13;20.50;24.40
15630;DHT22;7914;50.842;0.166;2022-07-22T11:21:39;20.40;27.50
15630;DHT22;7914;50.842;0.166;2022-07-22T11:24:07;20.30;48.40
15630;DHT22;7914;50.842;0.166;2022-07-22T11:26:40;20.30;62.60
15630;DHT22;7914;50.842;0.166;2022-07-22T11:29:08;20.20;67.90
15630;DHT22;7914;50.842;0.166;2022-07-22T11:31:34;20.20;57.80
15630;DHT22;7914;50.842;0.166;2022-07-22T11:34:14;20.30;57.90
15630;DHT22;7914;50.842;0.166;2022-07-22T11:36:44;20.20;55.10
15630;DHT22;7914;50.842;0.166;2022-07-22T11:39:12;20.20;50.70
15630;DHT22;7914;50.842;0.166;2022-07-22T11:41:38;20.20;65.40
15630;DHT22;7914;50.842;0.166;2022-07-22T11:44:06;20.40;55.30
15630;DHT22;7914;50.842;0.166;2022-07-22T11:46:38;20.50;41.00
15630;DHT22;7914;50.842;0.166;2022-07-22T11:49:04;20.60;43.60
15630;DHT22;7914;50.842;0.166;2022-07-22T11:51:32;20.70;81.70
15630;DHT22;7914;50.842;0.166;2022-07-22T11:53:58;20.90;74.20
15630;DHT22;7914;50.842;0.166;2022-07-22T11:56:25;21.00;35.90
15630;DHT22;7914;50.842;0.166;2022-07-22T11:58:51;21.10;29.00
15630;DHT22;7914;50.842;0.166;2022-07-22T12:01:24;21.30;2.30
15630;DHT22;7914;50.842;0.166;2022-07-22T12:03:55;21.50;2.40
15630;DHT22;7914;50.842;0.166;2022-07-22T12:06:22;21.60;1.00
15630;DHT22;7914;50.842;0.166;2022-07-22T12:08:53;21.70;1.00
15630;DHT22;7914;50.842;0.166;2022-07-22T12:11:21;21.50;1.00
15630;DHT22;7914;50.842;0.166;2022-07-22T12:13:49;21.60;1.00
15630;DHT22;7914;50.842;0.166;2022-07-22T12:16:19;21.60;1.00
15630;DHT22;7914;50.842;0.166;2022-07-22T12:18:52;21.60;1.00
15630;DHT22;7914;50.842;0.166;2022-07-22T12:21:18;21.50;1.00
15630;DHT22;7914;50.842;0.166;2022-07-22T12:24:02;21.50;1.00
15630;DHT22;7914;50.842;0.166;2022-07-22T12:26:38;21.60;1.00
15630;DHT22;7914;50.842;0.166;2022-07-22T12:29:25;21.50;1.00
15630;DHT22;7914;50.842;0.166;2022-07-22T12:37:16;21.90;1.00
15630;DHT22;7914;50.842;0.166;2022-07-22T12:40:06;22.40;1.00
15630;DHT22;7914;50.842;0.166;2022-07-22T12:42:36;22.40;1.00
15630;DHT22;7914;50.842;0.166;2022-07-22T12:45:14;22.60;1.00
15630;DHT22;7914;50.842;0.166;2022-07-22T12:52:54;22.60;1.00
15630;DHT22;7914;50.842;0.166;2022-07-22T12:55:21;22.60;99.90
15630;DHT22;7914;50.842;0.166;2022-07-22T12:57:47;22.50;1.00
15630;DHT22;7914;50.842;0.166;2022-07-22T13:00:21;22.50;1.00
15630;DHT22;7914;50.842;0.166;2022-07-22T13:02:47;22.40;1.00
15630;DHT22;7914;50.842;0.166;2022-07-22T13:05:13;22.50;1.00
15630;DHT22;7914;50.842;0.166;2022-07-22T13:07:39;22.50;1.00
15630;DHT22;7914;50.842;0.166;2022-07-22T13:10:06;22.60;1.00
15630;DHT22;7914;50.842;0.166;2022-07-22T13:12:31;22.70;1.00
15630;DHT22;7914;50.842;0.166;2022-07-22T13:14:57;22.70;1.00
15630;DHT22;7914;50.842;0.166;2022-07-22T13:17:23;22.70;1.00
15630;DHT22;7914;50.842;0.166;2022-07-22T13:19:48;22.80;1.00
15630;DHT22;7914;50.842;0.166;2022-07-22T13:22:14;22.80;1.00
15630;DHT22;7914;50.842;0.166;2022-07-22T13:24:40;22.80;1.00
15630;DHT22;7914;50.842;0.166;2022-07-22T13:27:06;22.90;1.00
15630;DHT22;7914;50.842;0.166;2022-07-22T13:29:31;23.10;1.00
15630;DHT22;7914;50.842;0.166;2022-07-22T13:31:57;23.00;99.90
15630;DHT22;7914;50.842;0.166;2022-07-22T13:34:23;22.90;1.00
15630;DHT22;7914;50.842;0.166;2022-07-22T13:36:48;22.80;99.90
15630;DHT22;7914;50.842;0.166;2022-07-22T13:39:14;22.80;1.00
15630;DHT22;7914;50.842;0.166;2022-07-22T13:41:40;22.80;1.00
15630;DHT22;7914;50.842;0.166;2022-07-22T13:44:06;22.80;1.00
15630;DHT22;7914;50.842;0.166;2022-07-22T13:46:34;22.70;1.00
15630;DHT22;7914;50.842;0.166;2022-07-22T13:49:00;22.70;1.00
15630;DHT22;7914;50.842;0.166;2022-07-22T13:51:26;22.70;45.80
15630;DHT22;7914;50.842;0.166;2022-07-22T13:53:52;22.80;99.90
15630;DHT22;7914;50.842;0.166;2022-07-22T13:56:18;22.70;1.00
15630;DHT22;7914;50.842;0.166;2022-07-22T13:58:43;22.90;1.00
15630;DHT22;7914;50.842;0.166;2022-07-22T14:01:09;22.90;34.60
15630;DHT22;7914;50.842;0.166;2022-07-22T14:03:36;22.90;99.90
15630;DHT22;7914;50.842;0.166;2022-07-22T14:06:03;22.90;99.90
15630;DHT22;7914;50.842;0.166;2022-07-22T14:08:29;22.90;99.90
15630;DHT22;7914;50.842;0.166;2022-07-22T14:10:54;22.90;99.90
15630;DHT22;7914;50.842;0.166;2022-07-22T14:13:20;22.90;99.90
15630;DHT22;7914;50.842;0.166;2022-07-22T14:15:46;23.00;1.00
15630;DHT22;7914;50.842;0.166;2022-07-22T14:18:12;23.20;99.90
15630;DHT22;7914;50.842;0.166;2022-07-22T14:20:38;23.60;1.00
15630;DHT22;7914;50.842;0.166;2022-07-22T14:23:05;23.70;99.90
15630;DHT22;7914;50.842;0.166;2022-07-22T14:25:31;22.70;99.90
15630;DHT22;7914;50.842;0.166;2022-07-22T14:27:57;23.50;99.90
15630;DHT22;7914;50.842;0.166;2022-07-22T14:30:23;23.30;34.00
15630;DHT22;7914;50.842;0.166;2022-07-22T14:32:49;23.40;99.90
15630;DHT22;7914;50.842;0.166;2022-07-22T14:35:16;23.30;99.90
15630;DHT22;7914;50.842;0.166;2022-07-22T14:37:41;23.20;99.90
15630;DHT22;7914;50.842;0.166;2022-07-22T14:40:08;23.20;52.40
15630;DHT22;7914;50.842;0.166;2022-07-22T14:42:34;23.30;1.90
15630;DHT22;7914;50.842;0.166;2022-07-22T14:44:59;23.40;1.00
15630;DHT22;7914;50.842;0.166;2022-07-22T14:47:25;23.50;1.00
15630;DHT22;7914;50.842;0.166;2022-07-22T14:49:52;23.50;1.00
15630;DHT22;7914;50.842;0.166;2022-07-22T14:52:18;23.50;1.00
15630;DHT22;7914;50.842;0.166;2022-07-22T14:54:43;23.20;1.00
15630;DHT22;7914;50.842;0.166;2022-07-22T14:57:09;23.10;1.00
15630;DHT22;7914;50.842;0.166;2022-07-22T14:59:34;23.10;1.00
15630;DHT22;7914;50.842;0.166;2022-07-22T15:02:00;23.20;1.00
15630;DHT22;7914;50.842;0.166;2022-07-22T15:04:26;23.20;1.00
15630;DHT22;7914;50.842;0.166;2022-07-22T15:06:52;23.20;1.00
15630;DHT22;7914;50.842;0.166;2022-07-22T15:09:17;23.30;1.00
15630;DHT22;7914;50.842;0.166;2022-07-22T15:11:43;23.30;1.00
15630;DHT22;7914;50.842;0.166;2022-07-22T15:14:09;23.20;1.00
15630;DHT22;7914;50.842;0.166;2022-07-22T15:16:35;23.40;1.00
15630;DHT22;7914;50.842;0.166;2022-07-22T15:19:00;23.50;99.90
15630;DHT22;7914;50.842;0.166;2022-07-22T15:21:26;23.70;1.00
15630;DHT22;7914;50.842;0.166;2022-07-22T15:23:52;23.70;99.90
15630;DHT22;7914;50.842;0.166;2022-07-22T15:26:17;23.50;19.60
15630;DHT22;7914;50.842;0.166;2022-07-22T15:28:43;23.40;90.20
15630;DHT22;7914;50.842;0.166;2022-07-22T15:31:09;23.50;99.90
15630;DHT22;7914;50.842;0.166;2022-07-22T15:33:36;23.50;99.90
15630;DHT22;7914;50.842;0.166;2022-07-22T15:36:03;23.30;1.00
15630;DHT22;7914;50.842;0.166;2022-07-22T15:38:29;23.40;99.90
15630;DHT22;7914;50.842;0.166;2022-07-22T15:40:55;23.20;1.00
15630;DHT22;7914;50.842;0.166;2022-07-22T15:43:22;23.10;99.90
15630;DHT22;7914;50.842;0.166;2022-07-22T15:45:48;23.10;99.90
15630;DHT22;7914;50.842;0.166;2022-07-22T15:48:13;22.90;1.00
15630;DHT22;7914;50.842;0.166;2022-07-22T15:50:39;22.70;1.00
15630;DHT22;7914;50.842;0.166;2022-07-22T15:53:05;22.80;1.00
15630;DHT22;7914;50.842;0.166;2022-07-22T15:55:31;22.80;7.50
15630;DHT22;7914;50.842;0.166;2022-07-22T15:57:56;22.70;99.90
15630;DHT22;7914;50.842;0.166;2022-07-22T16:00:41;22.80;1.00
15630;DHT22;7914;50.842;0.166;2022-07-22T16:03:06;22.70;11.60
15630;DHT22;7914;50.842;0.166;2022-07-22T16:05:32;22.70;1.00
15630;DHT22;7914;50.842;0.166;2022-07-22T16:07:58;22.70;99.90
15630;DHT22;7914;50.842;0.166;2022-07-22T16:10:23;22.70;99.90
15630;DHT22;7914;50.842;0.166;2022-07-22T16:12:49;22.60;55.60
15630;DHT22;7914;50.842;0.166;2022-07-22T16:15:15;22.60;99.90